Time;durP1;ratioP1;P1;durP2;ratioP2;P2;SDS_P1;SDS_P2;PMS_P1;PMS_P2;Temp;Humidity;BMP_temperature;BMP_pressure;BME280_temperature;BME280_humidity;BME280_pressure;Samples;Min_cycle;Max_cycle;Signal;HPM_P1;HPM_P2
2023/08/23 00:01:01;;;;;;;4.13;2.75;;;;;;;21.69;52.88;100254.50;5050348;28;20087;-75
2023/08/23 00:03:42;;;;;;;6.18;3.13;;;;;;;21.67;52.50;100257.31;5050472;28;20053;-74
2023/08/23 00:06:09;;;;;;;4.85;3.20;;;;;;;21.64;52.52;100246.88;5048684;28;20456;-76
2023/08/23 00:08:36;;;;;;;3.13;2.70;;;;;;;21.61;52.78;100252.56;5048736;28;20132;-75
2023/08/23 00:11:02;;;;;;;4.13;2.90;;;;;;;21.57;52.84;100251.16;5051469;28;20472;-76
2023/08/23 00:13:29;;;;;;;5.72;3.20;;;;;;;21.54;53.00;100246.09;5053274;28;20479;-74
2023/08/23 00:15:55;;;;;;;4.88;3.45;;;;;;;21.50;53.10;100242.88;5054027;28;20049;-74
2023/08/23 00:18:22;;;;;;;5.20;3.10;;;;;;;21.48;53.13;100237.66;5054281;28;20055;-75
2023/08/23 00:20:48;;;;;;;3.92;3.00;;;;;;;21.45;53.38;100242.47;5054289;28;20081;-75
2023/08/23 00:23:15;;;;;;;7.10;3.70;;;;;;;21.42;53.62;100232.88;5054375;28;20049;-75
2023/08/23 00:25:41;;;;;;;6.43;3.50;;;;;;;21.41;53.78;100239.25;5036388;28;20092;-74
2023/08/23 00:28:08;;;;;;;9.43;3.42;;;;;;;21.41;53.88;100247.28;5054003;28;20060;-75
2023/08/23 00:30:56;;;;;;;6.78;3.50;;;;;;;21.36;54.57;100246.88;5053924;28;20091;-75
2023/08/23 00:33:22;;;;;;;5.35;3.33;;;;;;;21.39;53.81;100235.88;5054307;28;20048;-75
2023/08/23 00:35:49;;;;;;;4.80;2.83;;;;;;;21.37;53.63;100229.81;5036209;28;20111;-75
2023/08/23 00:38:16;;;;;;;4.38;3.13;;;;;;;21.36;54.08;100228.13;5053912;28;20454;-74
2023/08/23 00:40:43;;;;;;;5.00;3.35;;;;;;;21.33;54.00;100245.34;5053649;28;20464;-75
2023/08/23 00:43:09;;;;;;;4.20;2.95;;;;;;;21.32;54.13;100242.81;5036082;28;20055;-75
2023/08/23 00:45:37;;;;;;;5.93;3.33;;;;;;;21.30;54.32;100242.13;5053842;28;20059;-75
2023/08/23 00:48:05;;;;;;;8.40;3.75;;;;;;;21.29;54.59;100240.41;5053635;28;20060;-75
2023/08/23 00:50:32;;;;;;;5.65;3.33;;;;;;;21.29;54.71;100245.75;5053512;28;20444;-74
2023/08/23 00:53:00;;;;;;;5.00;3.10;;;;;;;21.27;54.52;100250.44;5053749;28;20143;-75
2023/08/23 00:55:27;;;;;;;4.75;3.17;;;;;;;21.25;54.30;100252.41;5053504;28;20044;-74
2023/08/23 00:57:53;;;;;;;4.82;3.28;;;;;;;21.22;54.46;100242.81;5053433;28;20049;-75
2023/08/23 01:00:21;;;;;;;5.03;3.55;;;;;;;21.18;54.70;100242.28;5052836;28;20052;-74
2023/08/23 01:02:48;;;;;;;5.88;3.67;;;;;;;21.17;55.00;100245.09;5053707;28;20135;-75
2023/08/23 01:05:15;;;;;;;8.02;3.35;;;;;;;21.14;55.00;100237.34;5053599;28;20053;-75
2023/08/23 01:08:00;;;;;;;4.53;3.25;;;;;;;21.11;56.04;100238.47;5035518;28;20497;-75
2023/08/23 01:10:46;;;;;;;6.10;3.00;;;;;;;21.07;55.46;100234.41;5053056;28;20045;-75
2023/08/23 01:13:27;;;;;;;4.88;2.83;;;;;;;21.06;55.50;100228.22;5053616;28;20136;-75
2023/08/23 01:15:56;;;;;;;4.88;2.83;;;;;;;21.07;54.94;100226.38;5053463;28;20456;-74
2023/08/23 01:18:23;;;;;;;6.25;3.75;;;;;;;21.05;55.47;100231.03;5051975;28;20041;-76
2023/08/23 01:20:53;;;;;;;7.03;3.75;;;;;;;21.03;55.87;100235.69;5052525;28;20885;-74
2023/08/23 01:23:22;;;;;;;3.90;3.42;;;;;;;21.00;55.67;100238.66;5052165;28;20099;-76
2023/08/23 01:25:50;;;;;;;6.38;3.40;;;;;;;20.97;55.20;100234.41;5053168;28;20544;-74
2023/08/23 01:28:17;;;;;;;4.82;3.05;;;;;;;20.94;55.05;100229.38;5053110;28;20099;-75
2023/08/23 01:30:44;;;;;;;9.90;3.90;;;;;;;20.90;55.34;100223.44;5052680;28;20516;-75
2023/08/23 01:33:19;;;;;;;5.78;3.80;;;;;;;20.85;56.21;100224.84;5052616;28;20119;-76
2023/08/23 01:36:05;;;;;;;4.13;2.92;;;;;;;20.76;56.32;100224.72;5052684;28;20611;-76
2023/08/23 01:38:34;;;;;;;4.63;3.17;;;;;;;20.76;56.09;100227.41;5053095;28;20061;-75
2023/08/23 01:41:01;;;;;;;5.45;3.33;;;;;;;20.72;56.18;100220.66;5051279;28;20552;-75
2023/08/23 01:43:28;;;;;;;4.38;3.05;;;;;;;20.71;55.82;100218.97;5052902;28;20127;-75
2023/08/23 01:45:54;;;;;;;5.13;3.25;;;;;;;20.69;55.85;100218.25;5052722;28;20183;-75
2023/08/23 01:48:21;;;;;;;8.25;3.60;;;;;;;20.67;56.11;100231.75;5052555;28;20095;-74
2023/08/23 01:50:50;;;;;;;4.72;3.28;;;;;;;20.64;56.16;100223.19;5052378;28;20048;-75
2023/08/23 01:53:16;;;;;;;5.85;3.78;;;;;;;20.61;56.52;100229.66;5052526;28;20107;-75
2023/08/23 01:55:43;;;;;;;7.53;3.97;;;;;;;20.59;56.71;100234.28;5052633;28;20052;-75
2023/08/23 01:58:09;;;;;;;5.18;4.00;;;;;;;20.58;56.62;100235.28;5051243;28;20443;-74
2023/08/23 02:00:36;;;;;;;5.20;4.10;;;;;;;20.56;57.00;100237.28;5051947;28;20056;-74
2023/08/23 02:03:03;;;;;;;5.95;4.40;;;;;;;20.56;57.30;100234.59;5052341;28;20085;-75
2023/08/23 02:05:30;;;;;;;10.27;4.65;;;;;;;20.56;57.42;100248.78;5052276;28;20534;-75
2023/08/23 02:07:56;;;;;;;4.68;3.95;;;;;;;20.54;57.58;100239.22;5051198;28;20409;-75
2023/08/23 02:10:23;;;;;;;8.98;4.03;;;;;;;20.55;57.65;100235.56;5052088;28;20107;-75
2023/08/23 02:12:49;;;;;;;6.32;4.35;;;;;;;20.54;57.64;100229.38;5051826;28;20049;-76
2023/08/23 02:15:16;;;;;;;8.32;3.78;;;;;;;20.57;57.82;100249.66;5052154;28;20473;-75
2023/08/23 02:17:42;;;;;;;6.07;3.90;;;;;;;20.60;57.98;100245.84;5052224;28;20489;-74
2023/08/23 02:20:09;;;;;;;4.35;3.40;;;;;;;20.61;57.65;100242.19;5052003;28;20098;-76
2023/08/23 02:22:36;;;;;;;4.15;3.45;;;;;;;20.61;57.35;100243.03;5051876;28;20095;-75
2023/08/23 02:25:03;;;;;;;6.05;3.08;;;;;;;20.61;57.31;100240.38;5051975;28;20111;-74
2023/08/23 02:27:29;;;;;;;4.90;3.20;;;;;;;20.62;57.15;100244.72;5051897;28;20104;-76
2023/08/23 02:29:56;;;;;;;4.35;3.05;;;;;;;20.62;57.27;100241.19;5051566;28;20103;-75
2023/08/23 02:32:23;;;;;;;5.80;3.40;;;;;;;20.62;57.40;100241.19;5049870;28;20045;-74
2023/08/23 02:34:50;;;;;;;6.50;3.67;;;;;;;20.62;57.65;100233.16;5051731;28;20593;-75
2023/08/23 02:37:16;;;;;;;5.72;4.13;;;;;;;20.60;57.63;100236.00;5051766;28;20048;-74
2023/08/23 02:39:43;;;;;;;7.50;4.60;;;;;;;20.61;57.89;100226.13;5051511;28;20076;-75
2023/08/23 02:42:09;;;;;;;5.57;3.67;;;;;;;20.61;57.76;100229.66;5051235;28;20509;-76
2023/08/23 02:44:36;;;;;;;5.57;3.92;;;;;;;20.62;58.31;100220.66;5050302;28;20115;-75
2023/08/23 02:47:03;;;;;;;4.97;3.80;;;;;;;20.63;58.14;100216.97;5051691;28;20076;-75
2023/08/23 02:49:29;;;;;;;6.68;3.85;;;;;;;20.63;58.09;100211.63;5051278;28;20409;-75
2023/08/23 02:51:56;;;;;;;7.65;4.20;;;;;;;20.63;58.07;100214.31;5051487;28;20513;-74
2023/08/23 02:54:22;;;;;;;8.55;4.68;;;;;;;20.65;58.29;100220.38;5049521;28;20493;-75
2023/08/23 02:56:49;;;;;;;6.40;3.95;;;;;;;20.64;57.93;100207.97;5050986;28;20057;-75
2023/08/23 02:59:16;;;;;;;9.95;5.20;;;;;;;20.65;57.98;100208.81;5051301;28;20082;-75
2023/08/23 03:01:42;;;;;;;4.90;3.92;;;;;;;20.64;57.67;100204.47;5050231;28;20055;-74
2023/08/23 03:04:09;;;;;;;5.93;4.40;;;;;;;20.61;57.60;100202.91;5051124;28;20076;-75
2023/08/23 03:06:35;;;;;;;6.78;4.40;;;;;;;20.58;57.68;100192.50;5049988;28;20560;-75
2023/08/23 03:09:02;;;;;;;9.95;4.72;;;;;;;20.56;58.11;100192.63;5050854;28;20048;-75
2023/08/23 03:11:28;;;;;;;6.13;4.57;;;;;;;20.54;58.19;100191.09;5051102;28;20057;-74
2023/08/23 03:13:56;;;;;;;7.82;5.97;;;;;;;20.52;58.43;100185.06;5050805;28;20144;-74
2023/08/23 03:16:23;;;;;;;8.65;5.30;;;;;;;20.51;58.40;100180.66;5051135;28;20131;-75
2023/08/23 03:18:49;;;;;;;5.85;5.03;;;;;;;20.51;58.31;100186.03;5050642;28;20497;-75
2023/08/23 03:21:16;;;;;;;9.75;5.18;;;;;;;20.49;58.37;100185.34;5051026;28;20115;-74
2023/08/23 03:23:42;;;;;;;6.57;4.63;;;;;;;20.48;58.32;100186.31;5050540;28;20089;-74
2023/08/23 03:26:09;;;;;;;6.93;5.47;;;;;;;20.46;58.47;100190.97;5050789;28;20056;-75
2023/08/23 03:28:35;;;;;;;9.63;6.35;;;;;;;20.42;58.57;100174.38;5050661;28;20087;-75
2023/08/23 03:31:03;;;;;;;9.73;6.13;;;;;;;20.40;58.60;100182.53;5050756;28;20132;-76
2023/08/23 03:33:30;;;;;;;12.70;7.32;;;;;;;20.36;59.13;100177.59;5050886;28;20111;-75
2023/08/23 03:35:57;;;;;;;9.93;6.65;;;;;;;20.35;59.52;100182.09;5032764;28;20057;-76
2023/08/23 03:38:24;;;;;;;10.43;7.00;;;;;;;20.34;59.43;100184.91;5050766;28;20049;-74
2023/08/23 03:40:54;;;;;;;11.00;7.35;;;;;;;20.34;59.71;100179.56;5033130;28;20049;-74
2023/08/23 03:43:20;;;;;;;9.98;6.43;;;;;;;20.35;59.83;100181.25;5050772;28;20087;-75
2023/08/23 03:45:48;;;;;;;13.40;7.28;;;;;;;20.34;59.92;100192.94;5049792;28;20041;-75
2023/08/23 03:48:18;;;;;;;10.98;7.57;;;;;;;20.34;60.07;100187.59;5050681;28;20057;-75
2023/08/23 03:50:45;;;;;;;10.32;6.80;;;;;;;20.35;59.85;100175.91;5032692;28;20498;-76
2023/08/23 03:53:11;;;;;;;11.57;7.13;;;;;;;20.34;59.65;100180.44;5050661;28;20048;-75
2023/08/23 03:55:38;;;;;;;10.13;6.38;;;;;;;20.35;59.52;100186.59;5032687;28;20064;-74
2023/08/23 03:58:05;;;;;;;8.13;5.85;;;;;;;20.33;59.75;100177.88;5050436;28;20151;-75
2023/08/23 04:00:32;;;;;;;9.63;6.65;;;;;;;20.31;59.94;100180.69;5050387;28;20555;-75
2023/08/23 04:03:00;;;;;;;11.05;6.50;;;;;;;20.31;60.15;100184.19;5050612;28;20759;-75
2023/08/23 04:05:26;;;;;;;10.93;6.72;;;;;;;20.29;59.86;100178.16;5050646;28;20045;-75
2023/08/23 04:07:53;;;;;;;12.30;6.68;;;;;;;20.29;59.80;100177.31;5050218;28;20048;-75
2023/08/23 04:10:20;;;;;;;10.02;6.50;;;;;;;20.27;59.78;100171.28;5050283;28;20521;-75
2023/08/23 04:12:46;;;;;;;9.43;6.88;;;;;;;20.28;60.00;100170.28;5050476;28;20449;-75
2023/08/23 04:15:13;;;;;;;9.23;6.65;;;;;;;20.25;59.87;100176.75;5050482;28;20547;-75
2023/08/23 04:17:39;;;;;;;8.60;6.05;;;;;;;20.24;60.17;100169.72;5050163;28;20055;-75
2023/08/23 04:20:06;;;;;;;10.27;6.32;;;;;;;20.24;60.32;100179.56;5049820;28;20063;-76
2023/08/23 04:22:33;;;;;;;12.13;7.05;;;;;;;20.24;60.42;100171.53;5050420;28;20053;-75
2023/08/23 04:25:00;;;;;;;13.40;7.32;;;;;;;20.23;60.80;100176.06;5050724;28;20123;-75
2023/08/23 04:27:26;;;;;;;12.30;6.68;;;;;;;20.24;60.77;100190.25;5050384;28;20099;-76
2023/08/23 04:29:53;;;;;;;10.10;6.30;;;;;;;20.24;60.36;100195.59;5050072;28;20053;-75
2023/08/23 04:32:19;;;;;;;13.50;6.72;;;;;;;20.23;60.06;100193.91;5049980;28;20053;-75
2023/08/23 04:34:46;;;;;;;10.70;6.43;;;;;;;20.21;60.04;100198.53;5050345;28;20049;-75
2023/08/23 04:37:12;;;;;;;11.05;7.05;;;;;;;20.18;60.31;100192.50;5050305;28;20061;-74
2023/08/23 04:39:39;;;;;;;10.90;6.45;;;;;;;20.17;60.13;100190.81;5050117;28;20059;-74
2023/08/23 04:42:06;;;;;;;14.25;6.65;;;;;;;20.15;60.62;100190.09;5032688;28;20045;-76
2023/08/23 04:44:35;;;;;;;10.65;6.72;;;;;;;20.14;60.36;100190.25;5049104;28;20087;-74
2023/08/23 04:47:01;;;;;;;7.50;5.97;;;;;;;20.16;60.94;100193.63;5050137;28;20057;-75
2023/08/23 04:49:28;;;;;;;8.57;6.50;;;;;;;20.15;60.88;100192.78;5049698;28;20080;-75
2023/08/23 04:51:54;;;;;;;8.15;5.25;;;;;;;20.14;61.00;100177.72;5050441;28;20135;-75
2023/08/23 04:54:21;;;;;;;10.27;6.38;;;;;;;20.15;61.25;100187.44;5050453;28;20544;-75
2023/08/23 04:56:48;;;;;;;9.10;5.93;;;;;;;20.16;61.48;100189.16;5052653;28;20110;-76
2023/08/23 04:59:14;;;;;;;10.55;6.20;;;;;;;20.18;61.57;100191.66;5052629;28;20103;-74
2023/08/23 05:01:41;;;;;;;8.90;5.55;;;;;;;20.19;61.32;100193.38;5053711;28;20447;-74
2023/08/23 05:04:08;;;;;;;9.93;5.97;;;;;;;20.21;61.56;100201.22;5052875;28;20041;-76
2023/08/23 05:06:35;;;;;;;6.22;4.70;;;;;;;20.24;61.67;100211.63;5053844;28;20732;-77
2023/08/23 05:09:04;;;;;;;11.32;5.05;;;;;;;20.25;61.62;100213.31;5053317;28;20052;-76
2023/08/23 05:11:31;;;;;;;6.28;4.60;;;;;;;20.27;61.31;100214.91;5052855;28;20494;-76
2023/08/23 05:13:58;;;;;;;9.43;5.03;;;;;;;20.28;61.47;100211.22;5053510;28;20045;-76
2023/08/23 05:16:24;;;;;;;6.15;4.80;;;;;;;20.30;61.89;100214.59;5053337;28;20045;-76
2023/08/23 05:18:51;;;;;;;13.52;6.13;;;;;;;20.33;61.67;100224.16;5053311;28;20098;-76
2023/08/23 05:21:18;;;;;;;7.18;5.07;;;;;;;20.36;61.98;100217.69;5053193;28;20052;-76
2023/08/23 05:23:45;;;;;;;8.15;5.68;;;;;;;20.41;62.07;100223.47;5053434;28;20055;-76
2023/08/23 05:26:11;;;;;;;7.63;5.13;;;;;;;20.47;62.37;100227.41;5053234;28;20111;-76
2023/08/23 05:28:38;;;;;;;7.75;5.35;;;;;;;20.52;62.30;100233.19;5053146;28;20076;-75
2023/08/23 05:31:04;;;;;;;9.68;6.18;;;;;;;20.60;62.38;100236.00;5052623;28;20114;-76
2023/08/23 05:33:31;;;;;;;9.13;6.00;;;;;;;20.67;62.49;100233.63;5035568;28;20060;-77
2023/08/23 05:35:57;;;;;;;7.43;5.60;;;;;;;20.75;62.38;100219.50;5053075;28;20049;-76
2023/08/23 05:38:24;;;;;;;8.02;4.40;;;;;;;20.84;62.34;100229.34;5053035;28;20084;-76
2023/08/23 05:40:51;;;;;;;8.15;4.13;;;;;;;20.91;62.01;100225.16;5052545;28;20048;-77
2023/08/23 05:43:18;;;;;;;4.70;4.20;;;;;;;20.99;62.17;100221.75;5049122;28;20048;-76
2023/08/23 05:45:44;;;;;;;7.32;4.00;;;;;;;21.06;62.08;100227.38;5052538;28;20111;-77
2023/08/23 05:48:13;;;;;;;6.90;4.13;;;;;;;21.13;62.02;100225.81;5052560;28;20071;-75
2023/08/23 05:50:39;;;;;;;7.55;4.00;;;;;;;21.19;61.87;100224.38;5052138;28;20040;-76
2023/08/23 05:53:09;;;;;;;5.55;3.63;;;;;;;21.24;61.63;100230.16;5052889;28;20064;-76
2023/08/23 05:55:37;;;;;;;4.43;3.10;;;;;;;21.28;61.27;100226.19;5052694;28;20051;-77
2023/08/23 05:58:04;;;;;;;5.50;3.60;;;;;;;21.31;61.14;100238.44;5052462;28;20049;-75
2023/08/23 06:00:30;;;;;;;5.15;3.17;;;;;;;21.32;61.04;100237.44;5052261;28;20135;-76
2023/08/23 06:02:57;;;;;;;6.93;3.33;;;;;;;21.33;61.01;100239.13;5034791;28;20387;-76
2023/08/23 06:05:24;;;;;;;5.65;3.20;;;;;;;21.33;60.79;100241.81;5052460;28;20049;-76
2023/08/23 06:07:50;;;;;;;5.20;3.05;;;;;;;21.32;60.75;100242.81;5051306;28;20164;-76
2023/08/23 06:10:17;;;;;;;4.63;3.15;;;;;;;21.34;60.90;100240.81;5052188;28;20144;-76
2023/08/23 06:12:43;;;;;;;5.40;3.15;;;;;;;21.35;60.74;100243.34;5051869;28;20053;-76
2023/08/23 06:15:10;;;;;;;4.03;3.10;;;;;;;21.36;60.95;100230.81;5052190;28;20052;-75
2023/08/23 06:17:36;;;;;;;5.18;3.05;;;;;;;21.38;60.84;100231.50;5052445;28;20414;-76
2023/08/23 06:20:04;;;;;;;6.38;3.40;;;;;;;21.42;61.10;100234.75;5034311;28;20061;-77
2023/08/23 06:22:31;;;;;;;8.05;3.47;;;;;;;21.46;61.43;100236.97;5033245;28;20085;-76
2023/08/23 06:24:58;;;;;;;6.63;3.28;;;;;;;21.51;61.26;100235.69;5051019;28;20052;-76
2023/08/23 06:27:24;;;;;;;6.85;3.88;;;;;;;21.55;61.41;100239.75;5050648;28;20045;-76
2023/08/23 06:29:51;;;;;;;5.80;3.75;;;;;;;21.60;61.55;100232.97;5050773;28;20076;-76
2023/08/23 06:32:19;;;;;;;8.90;3.78;;;;;;;21.67;61.19;100240.38;5051418;28;20045;-76
2023/08/23 06:34:45;;;;;;;5.20;3.53;;;;;;;21.70;61.17;100238.28;5052051;28;20041;-76
2023/08/23 06:37:12;;;;;;;7.65;4.57;;;;;;;21.77;61.24;100243.06;5033789;28;20057;-76
2023/08/23 06:39:39;;;;;;;7.30;4.55;;;;;;;21.81;60.79;100248.00;5051332;28;20049;-76
2023/08/23 06:42:05;;;;;;;7.57;3.95;;;;;;;21.85;60.85;100238.66;5051836;28;20067;-76
2023/08/23 06:44:32;;;;;;;5.22;3.75;;;;;;;21.89;60.68;100238.34;5051808;28;20045;-76
2023/08/23 06:46:59;;;;;;;5.57;3.95;;;;;;;21.91;60.71;100234.53;5033672;28;20147;-77
2023/08/23 06:49:25;;;;;;;8.52;4.32;;;;;;;21.93;60.59;100243.25;5051459;28;20110;-76
2023/08/23 06:51:52;;;;;;;7.85;4.72;;;;;;;21.94;60.07;100242.25;5034004;28;20118;-76
2023/08/23 06:54:18;;;;;;;7.72;4.90;;;;;;;21.95;60.39;100249.34;5051561;28;20087;-76
2023/08/23 06:56:46;;;;;;;7.47;4.68;;;;;;;21.96;60.37;100239.44;5033777;28;20481;-76
2023/08/23 06:59:12;;;;;;;8.40;5.20;;;;;;;21.96;60.53;100242.97;5050725;28;20485;-76
2023/08/23 07:01:39;;;;;;;7.68;4.93;;;;;;;21.98;60.38;100243.66;5051491;28;20474;-76
2023/08/23 07:04:06;;;;;;;7.88;5.20;;;;;;;21.99;60.36;100237.28;5051370;28;20053;-76
2023/08/23 07:06:32;;;;;;;8.00;4.50;;;;;;;22.00;60.19;100244.34;5033659;28;20119;-76
2023/08/23 07:08:59;;;;;;;9.88;5.15;;;;;;;22.02;60.08;100243.34;5050828;28;20143;-76
2023/08/23 07:11:25;;;;;;;8.80;4.72;;;;;;;22.03;60.22;100248.56;5051024;28;20063;-75
2023/08/23 07:13:52;;;;;;;9.48;4.70;;;;;;;22.05;60.20;100245.75;5051047;28;20057;-76
2023/08/23 07:16:18;;;;;;;6.18;4.53;;;;;;;22.06;60.32;100248.28;5051231;28;20094;-76
2023/08/23 07:18:45;;;;;;;7.93;3.83;;;;;;;22.10;60.11;100252.31;5050812;28;20510;-77
2023/08/23 07:21:12;;;;;;;7.43;4.25;;;;;;;22.12;59.73;100258.38;5050918;28;20053;-77
2023/08/23 07:23:39;;;;;;;8.25;4.22;;;;;;;22.15;59.79;100261.75;5050170;28;20044;-74
2023/08/23 07:26:09;;;;;;;9.07;3.70;;;;;;;22.17;59.80;100260.63;5051262;28;20056;-76
2023/08/23 07:28:36;;;;;;;7.95;4.85;;;;;;;22.18;59.92;100262.31;5051076;28;20053;-77
2023/08/23 07:31:03;;;;;;;10.20;5.20;;;;;;;22.21;59.96;100263.84;5050544;28;20052;-76
2023/08/23 07:33:29;;;;;;;8.30;4.65;;;;;;;22.23;59.73;100257.31;5050964;28;20053;-76
2023/08/23 07:35:58;;;;;;;8.75;4.45;;;;;;;22.25;60.12;100271.41;5050788;28;20064;-76
2023/08/23 07:38:25;;;;;;;9.90;5.25;;;;;;;22.29;59.64;100268.44;5051050;28;20132;-76
2023/08/23 07:40:59;;;;;;;6.32;4.70;;;;;;;22.30;59.87;100279.00;5049517;28;20061;-76
2023/08/23 07:43:26;;;;;;;9.70;4.32;;;;;;;22.34;59.59;100275.03;5051036;28;20586;-76
2023/08/23 07:45:57;;;;;;;7.28;4.85;;;;;;;22.35;59.62;100274.03;5050814;28;20049;-76
2023/08/23 07:48:24;;;;;;;9.73;5.05;;;;;;;22.38;59.15;100275.56;5050783;28;20051;-76
2023/08/23 07:50:52;;;;;;;7.75;5.03;;;;;;;22.41;59.35;100282.44;5049310;28;20052;-76
2023/08/23 07:53:19;;;;;;;7.75;4.68;;;;;;;22.43;59.20;100281.31;5051085;28;20053;-76
2023/08/23 07:55:45;;;;;;;8.60;4.90;;;;;;;22.46;59.38;100280.19;5050940;28;20102;-76
2023/08/23 07:58:12;;;;;;;9.70;5.25;;;;;;;22.49;59.46;100282.53;5049506;28;20045;-75
2023/08/23 08:00:38;;;;;;;9.18;5.95;;;;;;;22.52;59.67;100288.47;5049209;28;20179;-77
2023/08/23 08:03:05;;;;;;;10.10;6.13;;;;;;;22.56;59.10;100286.34;5049417;28;20048;-76
2023/08/23 08:05:36;;;;;;;7.78;4.90;;;;;;;22.59;59.16;100287.88;5050627;28;20048;-76
2023/08/23 08:08:03;;;;;;;8.55;5.32;;;;;;;22.63;59.44;100284.75;5050612;28;20080;-76
2023/08/23 08:10:35;;;;;;;6.90;5.25;;;;;;;22.69;59.28;100282.44;5049327;28;20049;-76
2023/08/23 08:13:02;;;;;;;9.40;5.75;;;;;;;22.73;58.91;100281.94;5050234;28;20072;-76
2023/08/23 08:15:29;;;;;;;9.80;5.28;;;;;;;22.77;58.87;100275.28;5050535;28;20049;-76
2023/08/23 08:17:56;;;;;;;7.80;4.35;;;;;;;22.80;58.67;100274.13;5050669;28;20111;-76
2023/08/23 08:20:24;;;;;;;9.95;4.47;;;;;;;22.83;57.96;100284.56;5050467;28;20136;-76
2023/08/23 08:22:52;;;;;;;7.20;3.90;;;;;;;22.85;58.54;100284.41;5049075;28;20128;-76
2023/08/23 08:25:19;;;;;;;7.03;4.35;;;;;;;22.87;58.53;100288.63;5049272;28;20057;-77
2023/08/23 08:27:46;;;;;;;6.70;4.43;;;;;;;22.90;58.40;100291.00;5049872;28;20052;-76
2023/08/23 08:30:14;;;;;;;7.63;4.30;;;;;;;22.94;58.10;100291.53;5050121;28;20071;-76
2023/08/23 08:32:40;;;;;;;8.45;4.03;;;;;;;22.99;58.63;100294.56;5054181;28;20049;-76
2023/08/23 08:35:07;;;;;;;8.95;4.07;;;;;;;23.03;58.54;100300.50;5054618;28;20098;-76
2023/08/23 08:37:36;;;;;;;8.55;4.45;;;;;;;23.11;58.21;100300.56;5053581;28;20061;-77
2023/08/23 08:40:03;;;;;;;6.18;4.20;;;;;;;23.15;58.09;100293.88;5053623;28;20096;-76
2023/08/23 08:42:30;;;;;;;8.00;4.10;;;;;;;23.20;57.62;100296.06;5054036;28;20485;-76
2023/08/23 08:44:57;;;;;;;7.13;3.92;;;;;;;23.25;58.22;100298.31;5036425;28;20131;-76
2023/08/23 08:47:24;;;;;;;6.38;4.00;;;;;;;23.29;58.17;100297.81;5019913;28;20053;-76
2023/08/23 08:49:51;;;;;;;7.63;3.80;;;;;;;23.35;58.08;100307.13;5053807;28;20055;-76
2023/08/23 08:52:19;;;;;;;5.15;3.90;;;;;;;23.41;58.45;100305.66;5054068;28;20132;-76
2023/08/23 08:54:48;;;;;;;7.20;3.92;;;;;;;23.48;58.25;100298.66;5054006;28;20103;-76
2023/08/23 08:57:15;;;;;;;6.60;3.80;;;;;;;23.56;58.05;100295.16;5053680;28;20049;-75
2023/08/23 08:59:43;;;;;;;6.10;4.10;;;;;;;23.64;57.71;100297.88;5053368;28;20053;-77
2023/08/23 09:02:12;;;;;;;7.38;3.75;;;;;;;23.72;57.75;100297.06;5053913;28;20502;-75
2023/08/23 09:04:39;;;;;;;5.95;3.95;;;;;;;23.80;57.68;100302.50;5036116;28;20452;-76
2023/08/23 09:07:06;;;;;;;7.90;4.13;;;;;;;23.89;58.32;100299.84;5052262;28;20144;-76
2023/08/23 09:09:33;;;;;;;8.65;3.90;;;;;;;23.98;57.20;100304.25;5052927;28;20499;-76
2023/08/23 09:11:59;;;;;;;6.47;3.85;;;;;;;24.06;57.01;100309.66;5052476;28;20052;-75
2023/08/23 09:14:27;;;;;;;7.13;3.92;;;;;;;24.14;56.45;100306.16;5053547;28;20053;-76
2023/08/23 09:16:54;;;;;;;7.97;4.07;;;;;;;24.24;56.54;100302.50;5053583;28;20127;-75
2023/08/23 09:19:21;;;;;;;6.10;4.28;;;;;;;24.30;55.87;100294.59;5053335;28;20136;-76
2023/08/23 09:21:49;;;;;;;5.35;4.15;;;;;;;24.38;55.86;100298.34;5035759;28;20655;-76
2023/08/23 09:24:17;;;;;;;5.82;3.72;;;;;;;24.44;56.05;100293.13;5053017;28;20059;-76
2023/08/23 09:26:44;;;;;;;7.32;3.67;;;;;;;24.52;55.86;100294.16;5051919;28;20049;-76
2023/08/23 09:29:12;;;;;;;4.28;3.53;;;;;;;24.59;56.22;100295.16;5053201;28;20417;-75
2023/08/23 09:31:39;;;;;;;8.05;4.00;;;;;;;24.68;55.88;100298.72;5053173;28;20084;-76
2023/08/23 09:34:14;;;;;;;7.00;3.72;;;;;;;24.77;55.28;100299.53;5052028;28;20060;-77
2023/08/23 09:36:41;;;;;;;4.78;2.92;;;;;;;24.89;55.31;100294.72;5052467;28;20045;-76
2023/08/23 09:39:11;;;;;;;4.57;3.35;;;;;;;24.98;54.54;100299.09;5051975;28;20763;-75
2023/08/23 09:41:40;;;;;;;4.43;3.15;;;;;;;25.06;54.96;100293.69;5052030;28;20140;-75
2023/08/23 09:44:22;;;;;;;5.68;3.63;;;;;;;25.16;54.36;100287.28;5051640;28;20048;-75
2023/08/23 09:46:51;;;;;;;4.35;2.67;;;;;;;25.26;54.75;100287.94;5051805;28;20056;-76
2023/08/23 09:49:21;;;;;;;4.28;2.97;;;;;;;25.33;54.49;100294.31;5052511;28;20072;-76
2023/08/23 09:51:54;;;;;;;3.03;1.95;;;;;;;25.41;53.36;100289.94;5052801;28;20053;-76
2023/08/23 09:54:31;;;;;;;3.47;2.13;;;;;;;25.50;53.39;100296.97;5036508;28;20513;-76
2023/08/23 09:57:14;;;;;;;6.10;2.42;;;;;;;25.61;53.28;100283.16;5052132;28;20060;-76
2023/08/23 09:59:42;;;;;;;5.55;2.75;;;;;;;25.69;53.24;100294.94;5050955;28;20053;-76
2023/08/23 10:02:12;;;;;;;5.25;2.63;;;;;;;25.77;53.05;100292.19;5052843;28;20049;-77
2023/08/23 10:04:42;;;;;;;4.53;2.53;;;;;;;25.86;53.37;100287.59;5052840;28;20052;-76
2023/08/23 10:07:11;;;;;;;3.15;2.30;;;;;;;25.93;53.47;100282.38;5052638;28;20143;-77
2023/08/23 10:09:39;;;;;;;5.63;2.25;;;;;;;26.02;52.83;100281.31;5052102;28;20123;-76
2023/08/23 10:12:09;;;;;;;7.65;2.67;;;;;;;26.10;52.19;100283.97;5052319;28;20539;-76
2023/08/23 10:14:41;;;;;;;4.85;2.25;;;;;;;26.19;51.94;100278.50;5052627;28;20092;-77
2023/08/23 10:17:09;;;;;;;4.82;2.67;;;;;;;26.27;52.18;100281.19;5052396;28;20053;-76
2023/08/23 10:19:37;;;;;;;4.93;2.42;;;;;;;26.38;52.44;100277.22;5033988;28;20080;-76
2023/08/23 10:22:05;;;;;;;3.85;2.40;;;;;;;26.46;51.27;100279.88;5052271;28;20099;-76
2023/08/23 10:24:31;;;;;;;4.75;2.40;;;;;;;26.54;51.73;100277.13;5052173;28;20115;-76
2023/08/23 10:27:07;;;;;;;4.97;2.00;;;;;;;26.61;52.28;100273.72;5052084;28;20053;-77
2023/08/23 10:29:37;;;;;;;6.38;2.45;;;;;;;26.70;49.67;100269.91;5051820;28;20107;-76
2023/08/23 10:32:13;;;;;;;4.30;2.22;;;;;;;26.77;50.32;100270.84;5052237;28;20099;-76
2023/08/23 10:34:43;;;;;;;4.65;2.30;;;;;;;26.88;50.42;100269.56;5052028;28;20049;-76
2023/08/23 10:37:17;;;;;;;6.40;2.30;;;;;;;26.95;50.17;100268.91;5034143;28;20115;-76
2023/08/23 10:39:49;;;;;;;4.65;2.38;;;;;;;27.04;49.73;100265.94;5033859;28;20057;-76
2023/08/23 10:42:20;;;;;;;5.85;2.60;;;;;;;27.13;48.36;100272.09;5052045;28;20505;-76
2023/08/23 10:44:54;;;;;;;3.35;1.50;;;;;;;27.21;48.33;100263.03;5052030;28;20048;-77
2023/08/23 10:47:21;;;;;;;4.07;1.45;;;;;;;27.31;49.24;100268.19;5034087;28;20048;-76
2023/08/23 10:49:50;;;;;;;4.15;1.27;;;;;;;27.39;49.04;100259.16;5033373;28;20469;-76
2023/08/23 10:52:17;;;;;;;2.00;1.40;;;;;;;27.51;47.45;100263.06;5051700;28;20072;-76
2023/08/23 10:54:43;;;;;;;2.78;1.13;;;;;;;27.64;49.34;100261.59;5049993;28;20045;-76
2023/08/23 10:57:10;;;;;;;4.75;1.38;;;;;;;27.78;47.79;100254.50;5051539;28;20049;-76
2023/08/23 10:59:36;;;;;;;3.10;1.58;;;;;;;27.97;48.35;100256.56;5051195;28;20047;-75
2023/08/23 11:02:03;;;;;;;2.63;1.90;;;;;;;28.25;48.42;100244.19;5051605;28;20052;-77
2023/08/23 11:04:31;;;;;;;2.95;1.50;;;;;;;28.60;49.51;100249.75;5051376;28;20052;-76
2023/08/23 11:06:58;;;;;;;3.70;1.58;;;;;;;29.07;48.80;100241.19;5051584;28;20045;-76
2023/08/23 11:09:24;;;;;;;3.42;1.50;;;;;;;29.67;48.71;100249.88;5051303;28;20400;-74
2023/08/23 11:11:51;;;;;;;3.53;1.63;;;;;;;30.33;47.52;100239.41;5050917;28;20568;-74
2023/08/23 11:14:24;;;;;;;2.95;1.35;;;;;;;31.00;46.63;100242.19;5050997;28;20052;-73
2023/08/23 11:16:50;;;;;;;;;;;;;;;31.54;47.69;100228.44;5051656;28;20045;-76
2023/08/23 11:19:17;;;;;;;3.72;1.90;;;;;;;32.05;43.39;100242.25;5050991;28;19920;-74
2023/08/23 11:21:45;;;;;;;5.07;1.55;;;;;;;32.23;41.93;100246.13;5051399;28;20071;-76
2023/08/23 11:24:12;;;;;;;2.28;1.05;;;;;;;32.35;42.82;100230.75;5050965;28;20111;-76
2023/08/23 11:26:39;;;;;;;3.70;1.60;;;;;;;32.56;42.37;100236.06;5050793;28;20132;-76